sensor_id;sensor_type;location;lat;lon;timestamp;pressure;altitude;pressure_sealevel;temperature;humidity
81232;BME280;70703;55.652;37.710;2023-08-31T00:00:08;100183.16;;;16.48;64.48
81232;BME280;70703;55.652;37.710;2023-08-31T00:00:21;100164.72;;;16.38;64.50
81232;BME280;70703;55.652;37.710;2023-08-31T00:00:33;100182.50;;;16.53;64.39
81232;BME280;70703;55.652;37.710;2023-08-31T00:00:45;100196.63;;;16.55;64.35
81232;BME280;70703;55.652;37.710;2023-08-31T00:01:00;100151.91;;;16.27;64.49
81232;BME280;70703;55.652;37.710;2023-08-31T00:01:13;100198.47;;;16.54;64.61
81232;BME280;70703;55.652;37.710;2023-08-31T00:01:25;100171.78;;;16.39;64.50
81232;BME280;70703;55.652;37.710;2023-08-31T00:01:36;100194.97;;;16.54;64.29
81232;BME280;70703;55.652;37.710;2023-08-31T00:01:49;100193.94;;;16.55;64.61
81232;BME280;70703;55.652;37.710;2023-08-31T00:02:04;100194.97;;;16.54;64.37
81232;BME280;70703;55.652;37.710;2023-08-31T00:02:18;100172.16;;;16.43;64.48
81232;BME280;70703;55.652;37.710;2023-08-31T00:02:30;100191.66;;;16.52;64.40
81232;BME280;70703;55.652;37.710;2023-08-31T00:02:42;100193.28;;;16.53;64.72
81232;BME280;70703;55.652;37.710;2023-08-31T00:02:55;100190.59;;;16.53;64.42
81232;BME280;70703;55.652;37.710;2023-08-31T00:03:07;100190.00;;;16.50;64.66
81232;BME280;70703;55.652;37.710;2023-08-31T00:03:20;100193.28;;;16.53;64.48
81232;BME280;70703;55.652;37.710;2023-08-31T00:03:31;100178.84;;;16.40;64.88
81232;BME280;70703;55.652;37.710;2023-08-31T00:03:42;100163.94;;;16.31;64.83
81232;BME280;70703;55.652;37.710;2023-08-31T00:03:55;100193.72;;;16.49;64.79
81232;BME280;70703;55.652;37.710;2023-08-31T00:04:07;100192.91;;;16.49;64.46
81232;BME280;70703;55.652;37.710;2023-08-31T00:04:25;100199.97;;;16.50;64.65
81232;BME280;70703;55.652;37.710;2023-08-31T00:04:36;100195.63;;;16.49;64.59
81232;BME280;70703;55.652;37.710;2023-08-31T00:04:51;100187.53;;;16.49;64.74
81232;BME280;70703;55.652;37.710;2023-08-31T00:05:04;100190.00;;;16.50;64.54
81232;BME280;70703;55.652;37.710;2023-08-31T00:05:16;100192.91;;;16.49;64.59
81232;BME280;70703;55.652;37.710;2023-08-31T00:05:30;100199.13;;;16.49;64.82
81232;BME280;70703;55.652;37.710;2023-08-31T00:05:42;100192.50;;;16.45;64.70
81232;BME280;70703;55.652;37.710;2023-08-31T00:05:54;100183.38;;;16.46;64.85
81232;BME280;70703;55.652;37.710;2023-08-31T00:06:06;100191.25;;;16.48;64.99
81232;BME280;70703;55.652;37.710;2023-08-31T00:06:18;100197.91;;;16.45;64.76
81232;BME280;70703;55.652;37.710;2023-08-31T00:06:32;100191.69;;;16.45;64.72
81232;BME280;70703;55.652;37.710;2023-08-31T00:06:44;100190.88;;;16.44;64.77
81232;BME280;70703;55.652;37.710;2023-08-31T00:06:57;100184.47;;;16.39;64.76
81232;BME280;70703;55.652;37.710;2023-08-31T00:07:10;100196.28;;;16.44;64.94
81232;BME280;70703;55.652;37.710;2023-08-31T00:07:21;100201.88;;;16.43;65.06
81232;BME280;70703;55.652;37.710;2023-08-31T00:07:34;100198.34;;;16.42;64.88
81232;BME280;70703;55.652;37.710;2023-08-31T00:07:47;100190.91;;;16.38;64.79
81232;BME280;70703;55.652;37.710;2023-08-31T00:07:59;100196.69;;;16.41;65.02
81232;BME280;70703;55.652;37.710;2023-08-31T00:08:10;100194.41;;;16.38;65.21
81232;BME280;70703;55.652;37.710;2023-08-31T00:08:22;100195.06;;;16.40;64.78
81232;BME280;70703;55.652;37.710;2023-08-31T00:08:33;100183.66;;;16.31;65.09
81232;BME280;70703;55.652;37.710;2023-08-31T00:08:45;100198.78;;;16.39;64.86
81232;BME280;70703;55.652;37.710;2023-08-31T00:08:57;100196.31;;;16.38;65.11
81232;BME280;70703;55.652;37.710;2023-08-31T00:09:10;100200.84;;;16.37;65.11
81232;BME280;70703;55.652;37.710;2023-08-31T00:09:21;100189.91;;;16.32;65.19
81232;BME280;70703;55.652;37.710;2023-08-31T00:09:35;100191.34;;;16.35;64.95
81232;BME280;70703;55.652;37.710;2023-08-31T00:09:48;100195.44;;;16.37;64.87
81232;BME280;70703;55.652;37.710;2023-08-31T00:10:00;100201.28;;;16.34;65.18
81232;BME280;70703;55.652;37.710;2023-08-31T00:10:18;100200.69;;;16.32;65.08
81232;BME280;70703;55.652;37.710;2023-08-31T00:10:30;100201.91;;;16.36;64.95
81232;BME280;70703;55.652;37.710;2023-08-31T00:10:42;100198.00;;;16.32;65.32
81232;BME280;70703;55.652;37.710;2023-08-31T00:10:56;100184.13;;;16.22;65.15
81232;BME280;70703;55.652;37.710;2023-08-31T00:11:08;100194.66;;;16.30;65.63
81232;BME280;70703;55.652;37.710;2023-08-31T00:11:20;100204.22;;;16.32;65.61
81232;BME280;70703;55.652;37.710;2023-08-31T00:11:32;100201.50;;;16.32;65.28
81232;BME280;70703;55.652;37.710;2023-08-31T00:11:45;100195.50;;;16.30;65.37
81232;BME280;70703;55.652;37.710;2023-08-31T00:11:56;100196.31;;;16.31;65.58
81232;BME280;70703;55.652;37.710;2023-08-31T00:12:09;100187.25;;;16.19;65.62
81232;BME280;70703;55.652;37.710;2023-08-31T00:12:21;100200.91;;;16.30;65.32
81232;BME280;70703;55.652;37.710;2023-08-31T00:12:33;100204.41;;;16.31;65.44
81232;BME280;70703;55.652;37.710;2023-08-31T00:12:46;100203.81;;;16.29;65.54
81232;BME280;70703;55.652;37.710;2023-08-31T00:12:57;100180.81;;;16.20;65.41
81232;BME280;70703;55.652;37.710;2023-08-31T00:13:08;100200.06;;;16.30;65.61
81232;BME280;70703;55.652;37.710;2023-08-31T00:13:20;100202.75;;;16.30;65.54
81232;BME280;70703;55.652;37.710;2023-08-31T00:13:33;100196.75;;;16.28;65.55
81232;BME280;70703;55.652;37.710;2023-08-31T00:13:45;100201.13;;;16.29;65.26
81232;BME280;70703;55.652;37.710;2023-08-31T00:13:58;100204.63;;;16.29;65.51
81232;BME280;70703;55.652;37.710;2023-08-31T00:14:10;100201.94;;;16.29;65.38
81232;BME280;70703;55.652;37.710;2023-08-31T00:14:23;100204.63;;;16.29;65.43
81232;BME280;70703;55.652;37.710;2023-08-31T00:14:35;100203.81;;;16.29;65.64
81232;BME280;70703;55.652;37.710;2023-08-31T00:14:49;100198.84;;;16.26;65.48
81232;BME280;70703;55.652;37.710;2023-08-31T00:15:03;100202.38;;;16.26;65.74
81232;BME280;70703;55.652;37.710;2023-08-31T00:15:15;100202.59;;;16.25;65.40
81232;BME280;70703;55.652;37.710;2023-08-31T00:15:29;100184.53;;;16.19;65.52
81232;BME280;70703;55.652;37.710;2023-08-31T00:15:46;100174.84;;;16.11;65.70
81232;BME280;70703;55.652;37.710;2023-08-31T00:15:57;100193.88;;;16.23;65.75
81232;BME280;70703;55.652;37.710;2023-08-31T00:16:10;100199.25;;;16.23;65.45
81232;BME280;70703;55.652;37.710;2023-08-31T00:16:24;100203.03;;;16.22;66.02
81232;BME280;70703;55.652;37.710;2023-08-31T00:16:36;100199.25;;;16.23;66.04
81232;BME280;70703;55.652;37.710;2023-08-31T00:16:48;100192.22;;;16.22;65.57
81232;BME280;70703;55.652;37.710;2023-08-31T00:17:01;100167.41;;;15.99;65.71
81232;BME280;70703;55.652;37.710;2023-08-31T00:17:15;100188.69;;;16.21;65.63
81232;BME280;70703;55.652;37.710;2023-08-31T00:17:29;100192.22;;;16.22;65.58
81232;BME280;70703;55.652;37.710;2023-08-31T00:17:41;100194.72;;;16.23;65.74
81232;BME280;70703;55.652;37.710;2023-08-31T00:17:54;100192.22;;;16.22;65.67
81232;BME280;70703;55.652;37.710;2023-08-31T00:18:05;100169.03;;;16.07;65.50
81232;BME280;70703;55.652;37.710;2023-08-31T00:18:17;100196.56;;;16.23;65.39
81232;BME280;70703;55.652;37.710;2023-08-31T00:18:29;100187.03;;;16.20;65.53
81232;BME280;70703;55.652;37.710;2023-08-31T00:18:40;100192.22;;;16.22;65.88
81232;BME280;70703;55.652;37.710;2023-08-31T00:18:52;100186.22;;;16.20;65.53
81232;BME280;70703;55.652;37.710;2023-08-31T00:19:04;100187.66;;;16.22;65.71
81232;BME280;70703;55.652;37.710;2023-08-31T00:19:17;100193.88;;;16.23;65.55
81232;BME280;70703;55.652;37.710;2023-08-31T00:19:29;100195.13;;;16.20;65.44
81232;BME280;70703;55.652;37.710;2023-08-31T00:19:41;100189.34;;;16.16;65.66
81232;BME280;70703;55.652;37.710;2023-08-31T00:19:53;100191.84;;;16.11;66.01
81232;BME280;70703;55.652;37.710;2023-08-31T00:20:07;100179.81;;;16.07;65.92
81232;BME280;70703;55.652;37.710;2023-08-31T00:20:19;100201.81;;;16.18;65.64
81232;BME280;70703;55.652;37.710;2023-08-31T00:20:31;100191.41;;;16.14;65.68
81232;BME280;70703;55.652;37.710;2023-08-31T00:20:45;100195.56;;;16.17;65.98
81232;BME280;70703;55.652;37.710;2023-08-31T00:20:56;100190.38;;;16.15;65.94
81232;BME280;70703;55.652;37.710;2023-08-31T00:21:09;100200.13;;;16.16;65.71
81232;BME280;70703;55.652;37.710;2023-08-31T00:21:21;100196.41;;;16.18;66.00
81232;BME280;70703;55.652;37.710;2023-08-31T00:21:33;100146.50;;;15.88;65.88
81232;BME280;70703;55.652;37.710;2023-08-31T00:21:44;100152.94;;;15.87;65.79
81232;BME280;70703;55.652;37.710;2023-08-31T00:21:55;100195.16;;;16.13;65.80
81232;BME280;70703;55.652;37.710;2023-08-31T00:22:07;100175.72;;;16.05;66.07
81232;BME280;70703;55.652;37.710;2023-08-31T00:22:20;100190.22;;;16.10;65.90
81232;BME280;70703;55.652;37.710;2023-08-31T00:22:32;100200.56;;;16.13;65.82
81232;BME280;70703;55.652;37.710;2023-08-31T00:22:44;100201.16;;;16.15;65.90
81232;BME280;70703;55.652;37.710;2023-08-31T00:22:57;100194.53;;;16.11;65.90
81232;BME280;70703;55.652;37.710;2023-08-31T00:23:09;100188.75;;;16.08;65.99
81232;BME280;70703;55.652;37.710;2023-08-31T00:23:21;100191.41;;;16.14;65.76
81232;BME280;70703;55.652;37.710;2023-08-31T00:23:33;100183.16;;;16.09;65.78
81232;BME280;70703;55.652;37.710;2023-08-31T00:23:45;100196.81;;;16.14;66.04
81232;BME280;70703;55.652;37.710;2023-08-31T00:23:57;100168.66;;;15.97;65.86
81232;BME280;70703;55.652;37.710;2023-08-31T00:24:09;100197.25;;;16.11;66.25
81232;BME280;70703;55.652;37.710;2023-08-31T00:24:20;100193.50;;;16.12;66.26
81232;BME280;70703;55.652;37.710;2023-08-31T00:24:43;100190.81;;;16.06;66.24
81232;BME280;70703;55.652;37.710;2023-08-31T00:24:55;100194.38;;;16.06;66.36
81232;BME280;70703;55.652;37.710;2023-08-31T00:25:08;100194.38;;;16.06;66.50
81232;BME280;70703;55.652;37.710;2023-08-31T00:25:21;100188.97;;;16.06;66.41
81232;BME280;70703;55.652;37.710;2023-08-31T00:25:33;100188.97;;;16.06;66.49
81232;BME280;70703;55.652;37.710;2023-08-31T00:25:46;100187.31;;;16.05;66.32
81232;BME280;70703;55.652;37.710;2023-08-31T00:25:58;100190.59;;;16.07;66.44
81232;BME280;70703;55.652;37.710;2023-08-31T00:26:11;100193.31;;;16.07;66.14
81232;BME280;70703;55.652;37.710;2023-08-31T00:26:23;100196.84;;;16.08;66.45
81232;BME280;70703;55.652;37.710;2023-08-31T00:26:35;100186.88;;;16.08;66.45
81232;BME280;70703;55.652;37.710;2023-08-31T00:26:51;100169.91;;;16.01;66.35
81232;BME280;70703;55.652;37.710;2023-08-31T00:27:03;100183.16;;;16.09;66.17
81232;BME280;70703;55.652;37.710;2023-08-31T00:27:18;100169.06;;;16.01;66.16
81232;BME280;70703;55.652;37.710;2023-08-31T00:27:32;100186.44;;;16.11;66.51
81232;BME280;70703;55.652;37.710;2023-08-31T00:27:43;100185.22;;;16.07;66.21
81232;BME280;70703;55.652;37.710;2023-08-31T00:27:58;100185.63;;;16.11;66.31
81232;BME280;70703;55.652;37.710;2023-08-31T00:28:16;100178.78;;;16.08;66.16
81232;BME280;70703;55.652;37.710;2023-08-31T00:28:29;100185.63;;;16.11;66.17
81232;BME280;70703;55.652;37.710;2023-08-31T00:28:41;100176.09;;;16.08;66.20
81232;BME280;70703;55.652;37.710;2023-08-31T00:28:54;100181.06;;;16.11;66.56
81232;BME280;70703;55.652;37.710;2023-08-31T00:29:06;100178.34;;;16.11;66.14
81232;BME280;70703;55.652;37.710;2023-08-31T00:29:18;100183.75;;;16.11;66.30
81232;BME280;70703;55.652;37.710;2023-08-31T00:29:29;100180.22;;;16.11;66.48
81232;BME280;70703;55.652;37.710;2023-08-31T00:29:43;100179.44;;;16.04;66.57
81232;BME280;70703;55.652;37.710;2023-08-31T00:29:57;100184.63;;;16.05;66.21
81232;BME280;70703;55.652;37.710;2023-08-31T00:30:10;100176.75;;;16.04;66.59
81232;BME280;70703;55.652;37.710;2023-08-31T00:30:26;100178.19;;;16.06;66.22
81232;BME280;70703;55.652;37.710;2023-08-31T00:30:41;100184.63;;;16.05;66.57
81232;BME280;70703;55.652;37.710;2023-08-31T00:30:53;100178.41;;;16.05;66.60
81232;BME280;70703;55.652;37.710;2023-08-31T00:31:05;100179.44;;;16.04;66.58
81232;BME280;70703;55.652;37.710;2023-08-31T00:31:17;100181.09;;;16.05;66.75
81232;BME280;70703;55.652;37.710;2023-08-31T00:31:29;100182.94;;;16.04;66.75
81232;BME280;70703;55.652;37.710;2023-08-31T00:31:41;100183.59;;;16.06;66.37
81232;BME280;70703;55.652;37.710;2023-08-31T00:31:55;100176.97;;;16.02;66.49
81232;BME280;70703;55.652;37.710;2023-08-31T00:32:06;100184.63;;;16.05;66.68
81232;BME280;70703;55.652;37.710;2023-08-31T00:32:18;100134.09;;;15.74;66.48
81232;BME280;70703;55.652;37.710;2023-08-31T00:32:29;100183.78;;;16.05;66.47
81232;BME280;70703;55.652;37.710;2023-08-31T00:32:41;100188.97;;;16.06;66.22
81232;BME280;70703;55.652;37.710;2023-08-31T00:32:54;100184.63;;;16.05;66.47
81232;BME280;70703;55.652;37.710;2023-08-31T00:33:12;100182.72;;;16.06;66.41
81232;BME280;70703;55.652;37.710;2023-08-31T00:33:25;100188.97;;;16.06;66.53
81232;BME280;70703;55.652;37.710;2023-08-31T00:33:37;100187.91;;;16.07;66.28
81232;BME280;70703;55.652;37.710;2023-08-31T00:33:49;100178.19;;;16.06;66.40
81232;BME280;70703;55.652;37.710;2023-08-31T00:34:02;100167.00;;;15.96;66.40
81232;BME280;70703;55.652;37.710;2023-08-31T00:34:15;100182.72;;;16.06;66.35
81232;BME280;70703;55.652;37.710;2023-08-31T00:34:29;100186.88;;;16.08;66.46
81232;BME280;70703;55.652;37.710;2023-08-31T00:34:40;100187.91;;;16.07;66.39
81232;BME280;70703;55.652;37.710;2023-08-31T00:34:55;100185.84;;;16.09;66.30
81232;BME280;70703;55.652;37.710;2023-08-31T00:35:06;100188.75;;;16.08;66.39
81232;BME280;70703;55.652;37.710;2023-08-31T00:35:20;100181.09;;;16.05;66.41
81232;BME280;70703;55.652;37.710;2023-08-31T00:35:33;100186.50;;;16.05;66.63
81232;BME280;70703;55.652;37.710;2023-08-31T00:35:46;100186.88;;;16.08;66.50
81232;BME280;70703;55.652;37.710;2023-08-31T00:35:59;100187.91;;;16.07;66.48
81232;BME280;70703;55.652;37.710;2023-08-31T00:36:14;100191.25;;;16.09;66.70
81232;BME280;70703;55.652;37.710;2023-08-31T00:36:26;100147.16;;;15.84;66.58
81232;BME280;70703;55.652;37.710;2023-08-31T00:36:39;100183.59;;;16.06;66.62
81232;BME280;70703;55.652;37.710;2023-08-31T00:36:51;100185.22;;;16.07;66.56
81232;BME280;70703;55.652;37.710;2023-08-31T00:37:04;100188.34;;;16.04;66.71
81232;BME280;70703;55.652;37.710;2023-08-31T00:37:15;100177.38;;;15.99;66.49
81232;BME280;70703;55.652;37.710;2023-08-31T00:37:27;100192.72;;;16.05;66.45
81232;BME280;70703;55.652;37.710;2023-08-31T00:37:40;100182.94;;;16.04;66.52
81232;BME280;70703;55.652;37.710;2023-08-31T00:37:52;100184.41;;;16.00;66.61
81232;BME280;70703;55.652;37.710;2023-08-31T00:38:08;100187.31;;;16.05;66.65
81232;BME280;70703;55.652;37.710;2023-08-31T00:38:19;100192.72;;;16.05;66.46
81232;BME280;70703;55.652;37.710;2023-08-31T00:38:32;100185.03;;;16.02;66.51
81232;BME280;70703;55.652;37.710;2023-08-31T00:38:45;100183.78;;;16.05;66.65
81232;BME280;70703;55.652;37.710;2023-08-31T00:38:57;100194.97;;;16.08;66.38
81232;BME280;70703;55.652;37.710;2023-08-31T00:39:09;100189.56;;;16.08;66.37
81232;BME280;70703;55.652;37.710;2023-08-31T00:39:23;100194.97;;;16.08;66.47
81232;BME280;70703;55.652;37.710;2023-08-31T00:39:36;100144.66;;;15.75;66.59
81232;BME280;70703;55.652;37.710;2023-08-31T00:39:48;100190.41;;;16.09;66.52
81232;BME280;70703;55.652;37.710;2023-08-31T00:40:04;100189.56;;;16.08;66.78
81232;BME280;70703;55.652;37.710;2023-08-31T00:40:19;100188.97;;;16.06;66.72
81232;BME280;70703;55.652;37.710;2023-08-31T00:40:31;100186.88;;;16.08;66.42
81232;BME280;70703;55.652;37.710;2023-08-31T00:40:43;100179.44;;;16.04;66.68
81232;BME280;70703;55.652;37.710;2023-08-31T00:40:56;100185.66;;;16.04;66.66
81232;BME280;70703;55.652;37.710;2023-08-31T00:41:07;100184.41;;;16.00;66.38
81232;BME280;70703;55.652;37.710;2023-08-31T00:41:18;100192.28;;;16.08;66.61
81232;BME280;70703;55.652;37.710;2023-08-31T00:41:31;100185.84;;;16.09;66.37
81232;BME280;70703;55.652;37.710;2023-08-31T00:41:44;100191.25;;;16.09;66.25
81232;BME280;70703;55.652;37.710;2023-08-31T00:41:58;100194.75;;;16.10;66.62
81232;BME280;70703;55.652;37.710;2023-08-31T00:42:09;100181.09;;;16.05;66.31
81232;BME280;70703;55.652;37.710;2023-08-31T00:42:20;100185.84;;;16.09;66.63
81232;BME280;70703;55.652;37.710;2023-08-31T00:42:33;100186.88;;;16.08;66.37
81232;BME280;70703;55.652;37.710;2023-08-31T00:42:45;100189.38;;;16.10;66.21
81232;BME280;70703;55.652;37.710;2023-08-31T00:42:57;100192.69;;;16.12;66.61
81232;BME280;70703;55.652;37.710;2023-08-31T00:43:09;100190.22;;;16.10;66.36
81232;BME280;70703;55.652;37.710;2023-08-31T00:43:21;100192.91;;;16.10;66.41
81232;BME280;70703;55.652;37.710;2023-08-31T00:43:32;100194.75;;;16.10;66.46
81232;BME280;70703;55.652;37.710;2023-08-31T00:43:47;100191.84;;;16.11;66.40
81232;BME280;70703;55.652;37.710;2023-08-31T00:43:59;100190.00;;;16.12;66.58
81232;BME280;70703;55.652;37.710;2023-08-31T00:44:12;100198.69;;;16.14;66.44
81232;BME280;70703;55.652;37.710;2023-08-31T00:44:24;100196.81;;;16.14;66.61
81232;BME280;70703;55.652;37.710;2023-08-31T00:44:36;100189.78;;;16.13;66.39
81232;BME280;70703;55.652;37.710;2023-08-31T00:44:49;100195.16;;;16.13;66.40
81232;BME280;70703;55.652;37.710;2023-08-31T00:45:00;100192.25;;;16.15;66.11
81232;BME280;70703;55.652;37.710;2023-08-31T00:45:12;100191.41;;;16.14;66.19
81232;BME280;70703;55.652;37.710;2023-08-31T00:45:26;100149.63;;;15.85;66.61
81232;BME280;70703;55.652;37.710;2023-08-31T00:45:39;100193.06;;;16.15;66.59
81232;BME280;70703;55.652;37.710;2023-08-31T00:45:53;100186.88;;;16.08;66.43
81232;BME280;70703;55.652;37.710;2023-08-31T00:46:09;100193.06;;;16.15;66.46
81232;BME280;70703;55.652;37.710;2023-08-31T00:46:22;100194.75;;;16.16;66.64
81232;BME280;70703;55.652;37.710;2023-08-31T00:46:33;100199.31;;;16.16;66.25
81232;BME280;70703;55.652;37.710;2023-08-31T00:46:45;100188.94;;;16.13;66.36
81232;BME280;70703;55.652;37.710;2023-08-31T00:46:57;100192.03;;;16.16;66.50
81232;BME280;70703;55.652;37.710;2023-08-31T00:47:09;100199.31;;;16.16;66.42
81232;BME280;70703;55.652;37.710;2023-08-31T00:47:20;100199.31;;;16.16;66.35
81232;BME280;70703;55.652;37.710;2023-08-31T00:47:32;100166.63;;;15.92;66.33
81232;BME280;70703;55.652;37.710;2023-08-31T00:47:43;100194.75;;;16.16;66.50
81232;BME280;70703;55.652;37.710;2023-08-31T00:47:56;100197.44;;;16.16;66.12
81232;BME280;70703;55.652;37.710;2023-08-31T00:48:11;100200.13;;;16.16;66.59
81232;BME280;70703;55.652;37.710;2023-08-31T00:48:25;100197.22;;;16.18;66.38
81232;BME280;70703;55.652;37.710;2023-08-31T00:48:38;100193.06;;;16.15;66.56
81232;BME280;70703;55.652;37.710;2023-08-31T00:48:49;100196.81;;;16.14;66.21
81232;BME280;70703;55.652;37.710;2023-08-31T00:49:01;100203.44;;;16.19;66.44
81232;BME280;70703;55.652;37.710;2023-08-31T00:49:15;100199.69;;;16.20;66.39
81232;BME280;70703;55.652;37.710;2023-08-31T00:49:26;100191.00;;;16.18;66.41
81232;BME280;70703;55.652;37.710;2023-08-31T00:49:38;100198.03;;;16.19;66.21
81232;BME280;70703;55.652;37.710;2023-08-31T00:49:51;100199.69;;;16.20;66.37
81232;BME280;70703;55.652;37.710;2023-08-31T00:50:04;100198.03;;;16.19;66.14
81232;BME280;70703;55.652;37.710;2023-08-31T00:50:19;100201.38;;;16.21;66.41
81232;BME280;70703;55.652;37.710;2023-08-31T00:50:30;100196.41;;;16.18;66.09
81232;BME280;70703;55.652;37.710;2023-08-31T00:50:42;100207.78;;;16.20;66.31
81232;BME280;70703;55.652;37.710;2023-08-31T00:50:53;100202.63;;;16.18;66.34
81232;BME280;70703;55.652;37.710;2023-08-31T00:51:07;100194.75;;;16.16;66.05
81232;BME280;70703;55.652;37.710;2023-08-31T00:51:20;100201.38;;;16.21;66.07
81232;BME280;70703;55.652;37.710;2023-08-31T00:51:33;100200.34;;;16.22;66.00
81232;BME280;70703;55.652;37.710;2023-08-31T00:51:45;100203.03;;;16.22;66.32
81232;BME280;70703;55.652;37.710;2023-08-31T00:51:59;100195.97;;;16.21;66.37
81232;BME280;70703;55.652;37.710;2023-08-31T00:52:13;100182.72;;;16.06;66.12
81232;BME280;70703;55.652;37.710;2023-08-31T00:52:26;100191.16;;;16.23;66.03
81232;BME280;70703;55.652;37.710;2023-08-31T00:52:38;100200.94;;;16.24;66.20
81232;BME280;70703;55.652;37.710;2023-08-31T00:52:49;100183.53;;;16.13;66.36
81232;BME280;70703;55.652;37.710;2023-08-31T00:53:01;100203.63;;;16.24;66.17
81232;BME280;70703;55.652;37.710;2023-08-31T00:53:17;100199.06;;;16.24;66.08
81232;BME280;70703;55.652;37.710;2023-08-31T00:53:29;100199.25;;;16.23;66.26
81232;BME280;70703;55.652;37.710;2023-08-31T00:53:45;100197.63;;;16.22;65.97
81232;BME280;70703;55.652;37.710;2023-08-31T00:53:56;100200.94;;;16.24;65.93
81232;BME280;70703;55.652;37.710;2023-08-31T00:54:11;100210.47;;;16.26;66.18
81232;BME280;70703;55.652;37.710;2023-08-31T00:54:24;100176.09;;;16.08;65.83
81232;BME280;70703;55.652;37.710;2023-08-31T00:54:35;100191.81;;;16.25;65.95
81232;BME280;70703;55.652;37.710;2023-08-31T00:54:49;100168.84;;;16.02;66.19
81232;BME280;70703;55.652;37.710;2023-08-31T00:55:03;100199.91;;;16.25;65.98
81232;BME280;70703;55.652;37.710;2023-08-31T00:55:16;100205.28;;;16.25;66.02
81232;BME280;70703;55.652;37.710;2023-08-31T00:55:30;100205.06;;;16.26;66.24
81232;BME280;70703;55.652;37.710;2023-08-31T00:55:44;100197.19;;;16.25;66.06
81232;BME280;70703;55.652;37.710;2023-08-31T00:55:56;100204.03;;;16.27;65.92
81232;BME280;70703;55.652;37.710;2023-08-31T00:56:08;100161.19;;;15.99;66.16
81232;BME280;70703;55.652;37.710;2023-08-31T00:56:19;100205.91;;;16.27;65.97
81232;BME280;70703;55.652;37.710;2023-08-31T00:56:32;100205.91;;;16.27;66.22
81232;BME280;70703;55.652;37.710;2023-08-31T00:56:44;100209.22;;;16.29;66.38
81232;BME280;70703;55.652;37.710;2023-08-31T00:56:56;100211.91;;;16.29;66.37
81232;BME280;70703;55.652;37.710;2023-08-31T00:57:09;100206.75;;;16.21;66.17
81232;BME280;70703;55.652;37.710;2023-08-31T00:57:21;100209.22;;;16.29;65.91
81232;BME280;70703;55.652;37.710;2023-08-31T00:57:32;100206.75;;;16.27;66.00
81232;BME280;70703;55.652;37.710;2023-08-31T00:57:45;100205.06;;;16.26;66.20
81232;BME280;70703;55.652;37.710;2023-08-31T00:57:56;100203.19;;;16.27;66.26
81232;BME280;70703;55.652;37.710;2023-08-31T00:58:09;100206.75;;;16.27;65.87
81232;BME280;70703;55.652;37.710;2023-08-31T00:58:21;100198.22;;;16.24;66.02
81232;BME280;70703;55.652;37.710;2023-08-31T00:58:35;100207.78;;;16.26;65.95
81232;BME280;70703;55.652;37.710;2023-08-31T00:58:48;100208.38;;;16.28;65.85
81232;BME280;70703;55.652;37.710;2023-08-31T00:59:00;100204.22;;;16.26;66.18
81232;BME280;70703;55.652;37.710;2023-08-31T00:59:12;100209.22;;;16.29;66.22
81232;BME280;70703;55.652;37.710;2023-08-31T00:59:25;100185.63;;;16.11;66.00
81232;BME280;70703;55.652;37.710;2023-08-31T00:59:38;100178.97;;;16.13;65.99
81232;BME280;70703;55.652;37.710;2023-08-31T00:59:50;100203.81;;;16.29;65.87
81232;BME280;70703;55.652;37.710;2023-08-31T01:00:01;100205.91;;;16.27;66.07
81232;BME280;70703;55.652;37.710;2023-08-31T01:00:17;100203.81;;;16.29;65.94
81232;BME280;70703;55.652;37.710;2023-08-31T01:00:40;100207.13;;;16.31;66.26
81232;BME280;70703;55.652;37.710;2023-08-31T01:01:01;100208.78;;;16.32;65.68
81232;BME280;70703;55.652;37.710;2023-08-31T01:01:29;100196.75;;;16.28;66.17
81232;BME280;70703;55.652;37.710;2023-08-31T01:01:51;100199.47;;;16.28;65.90
81232;BME280;70703;55.652;37.710;2023-08-31T01:02:17;100206.09;;;16.32;65.77
81232;BME280;70703;55.652;37.710;2023-08-31T01:02:40;100201.72;;;16.31;65.72
81232;BME280;70703;55.652;37.710;2023-08-31T01:02:59;100204.41;;;16.31;65.85
81232;BME280;70703;55.652;37.710;2023-08-31T01:03:19;100203.38;;;16.32;65.97
81232;BME280;70703;55.652;37.710;2023-08-31T01:03:42;100209.59;;;16.32;65.75
81232;BME280;70703;55.652;37.710;2023-08-31T01:04:01;100178.75;;;16.15;65.87
81232;BME280;70703;55.652;37.710;2023-08-31T01:04:20;100201.72;;;16.31;66.22
81232;BME280;70703;55.652;37.710;2023-08-31T01:04:40;100207.94;;;16.31;66.17
81232;BME280;70703;55.652;37.710;2023-08-31T01:04:59;100203.38;;;16.32;66.08
81232;BME280;70703;55.652;37.710;2023-08-31T01:05:25;100201.72;;;16.31;66.11
81232;BME280;70703;55.652;37.710;2023-08-31T01:05:46;100203.81;;;16.29;66.04
81232;BME280;70703;55.652;37.710;2023-08-31T01:06:18;100206.09;;;16.32;66.14
81232;BME280;70703;55.652;37.710;2023-08-31T01:06:41;100195.09;;;16.27;66.05
81232;BME280;70703;55.652;37.710;2023-08-31T01:07:02;100180.63;;;16.14;66.23
81232;BME280;70703;55.652;37.710;2023-08-31T01:07:21;100201.72;;;16.31;65.86
81232;BME280;70703;55.652;37.710;2023-08-31T01:07:47;100206.69;;;16.34;66.33
81232;BME280;70703;55.652;37.710;2023-08-31T01:08:09;100203.38;;;16.32;65.77
81232;BME280;70703;55.652;37.710;2023-08-31T01:08:31;100202.34;;;16.33;65.93
81232;BME280;70703;55.652;37.710;2023-08-31T01:08:53;100201.28;;;16.34;66.00
81232;BME280;70703;55.652;37.710;2023-08-31T01:09:15;100190.94;;;16.24;65.79
81232;BME280;70703;55.652;37.710;2023-08-31T01:09:36;100199.84;;;16.31;65.72